Aérodrome :
LOGIN :

S'inscrire | Disclaimer

   EN    FR    IT 

 










Légende :    VFR   VFR Marginal   IFR   IFR Intensif   IFR Très Intensif
Visi : 
Plafond : 
>= 8 km
>= 3000ft
5 à 8 km
1000 à 3000 ft
1500m à 5 km
500 à 1000 ft
800 à 1500m
200 à 500 ft
< 800m
< 200 ft
Symboles :   Orages  Brouillard  Fortes neiges  Fortes précipitations  Vent > 20 kt
SIGMETs :   Divers  Orages  Givrage  Turbulence  Onde Orograph.  Cendres Volcan.






- Altitude de l'aérodrome : 844 ft
- Code IATA : OSR


LKMT - Ostrava-Mosnov

DERNIER METAR :
  • 091430Z 22005KT 170V280 CAVOK 21/M02 Q1019 NOSIG

METARs EXPIRÉS :
  • 091400Z 22005KT 190V250 CAVOK 21/M02 Q1019 NOSIG
  • 091330Z VRB03KT CAVOK 21/M02 Q1019 NOSIG
  • 091300Z 21006KT 140V240 CAVOK 21/M01 Q1020 NOSIG
  • 091230Z VRB04KT CAVOK 21/M02 Q1020 NOSIG
  • 091200Z 22006KT 160V260 CAVOK 20/M02 Q1020 NOSIG

TAF TAF LKMT
Valide du 09 à 12h jusqu'au 10 à 18h UTC


091100Z 0912/1018 20008KT CAVOK
BECMG 0915/0917 36008KT



MET'MAP, la Météo Aéronautique d'un coup d'oeil ! - Copyright ORBIFLY Décembre 2007 - Disclaimer

ORBIFLY MET'MAP TEAM :

Programmation & Développement : Alexandra Zaïnal
Sur une idée originale de : Baudouin d'Aumeries
Assistance à la programmation : Marc-Olivier Méhu
Soutien technique & logistique : Manuel Goepfert

Contact : metmap@orbifly.com




SOURCES & CREDITS :

   NOAA